VH314 YWVA-YSSY
Flight info
| Callsign | VH314 |
|---|---|
| Flight time | 0h -35m |
| Altitude | 5500 |
| Route | SSY DCT |
| Aircraft | C152/L-V/N |
Departure
| Time | 2026-05-07 02:49 |
|---|---|
| Airport | Warnervale Airport (YWVA) |
Arrival
| Time | 2026-05-07 02:13 |
|---|---|
| Airport | Sydney Kingsford Smith International Airport (YSSY) |
| Time | Latitude | Longitude | Altitude | Speed | Heading |
|---|---|---|---|---|---|
| 2026-05-07 02:13 | -33.93531 | 151.18615 | 28 ft | 0 kts | 347° |
| 2026-05-07 02:16 | -33.93534 | 151.18616 | 28 ft | 0 kts | 167° |
| 2026-05-07 02:17 | -33.93562 | 151.18624 | 28 ft | 9 kts | 167° |
| 2026-05-07 02:17 | -33.93614 | 151.18638 | 28 ft | 2 kts | 167° |
| 2026-05-07 02:17 | -33.93634 | 151.18643 | 28 ft | 3 kts | 168° |
| 2026-05-07 02:18 | -33.93652 | 151.18647 | 28 ft | 0 kts | 168° |
| 2026-05-07 02:20 | -33.93653 | 151.18650 | 28 ft | 1 kts | 137° |
| 2026-05-07 02:20 | -33.93652 | 151.18682 | 28 ft | 9 kts | 64° |
| 2026-05-07 02:20 | -33.93609 | 151.18794 | 28 ft | 13 kts | 73° |
| 2026-05-07 02:20 | -33.93601 | 151.18863 | 28 ft | 0 kts | 96° |
| 2026-05-07 02:21 | -33.93606 | 151.18887 | 27 ft | 11 kts | 111° |
| 2026-05-07 02:21 | -33.93662 | 151.18945 | 22 ft | 0 kts | 154° |
| 2026-05-07 02:22 | -33.93777 | 151.18927 | 23 ft | 23 kts | 242° |
| 2026-05-07 02:22 | -33.93798 | 151.18844 | 25 ft | 0 kts | 255° |
| 2026-05-07 02:22 | -33.93871 | 151.18509 | 27 ft | 119 kts | 255° |
| 2026-05-07 02:22 | -33.94203 | 151.17023 | 133 ft | 239 kts | 254° |
| 2026-05-07 02:23 | -33.94662 | 151.14816 | 1199 ft | 301 kts | 257° |
| 2026-05-07 02:23 | -33.95108 | 151.12113 | 2832 ft | 351 kts | 266° |
| 2026-05-07 02:23 | -33.93556 | 151.09641 | 3749 ft | 418 kts | 324° |
| 2026-05-07 02:23 | -33.91121 | 151.08141 | 4255 ft | 367 kts | 331° |
| 2026-05-07 02:24 | -33.88819 | 151.06874 | 4452 ft | 396 kts | 330° |
| 2026-05-07 02:24 | -33.86034 | 151.05369 | 4532 ft | 472 kts | 332° |
| 2026-05-07 02:24 | -33.83971 | 151.04299 | 4444 ft | 496 kts | 333° |
| 2026-05-07 02:24 | -33.80582 | 151.02679 | 4081 ft | 556 kts | 335° |
| 2026-05-07 02:25 | -33.76880 | 151.00745 | 4091 ft | 590 kts | 332° |
| 2026-05-07 02:25 | -33.73142 | 150.98516 | 4624 ft | 603 kts | 330° |
| 2026-05-07 02:25 | -33.69296 | 150.96394 | 5046 ft | 612 kts | 334° |
| 2026-05-07 02:25 | -33.65343 | 150.94547 | 5332 ft | 617 kts | 338° |
| 2026-05-07 02:26 | -33.61224 | 150.92959 | 5524 ft | 621 kts | 341° |
| 2026-05-07 02:26 | -33.57125 | 150.91560 | 5648 ft | 576 kts | 339° |
| 2026-05-07 02:26 | -33.54062 | 150.89684 | 6046 ft | 401 kts | 292° |
| 2026-05-07 02:26 | -33.54085 | 150.87216 | 8119 ft | 246 kts | 248° |
| 2026-05-07 02:27 | -33.54805 | 150.85449 | 7557 ft | 229 kts | 241° |
| 2026-05-07 02:27 | -33.55672 | 150.83904 | 6841 ft | 214 kts | 236° |
| 2026-05-07 02:27 | -33.56586 | 150.82592 | 6080 ft | 202 kts | 230° |
| 2026-05-07 02:27 | -33.57408 | 150.81025 | 3254 ft | 253 kts | 236° |
| 2026-05-07 02:28 | -33.58098 | 150.78944 | 1491 ft | 268 kts | 262° |
| 2026-05-07 02:28 | -33.57935 | 150.76911 | 1462 ft | 223 kts | 288° |
| 2026-05-07 02:28 | -33.57663 | 150.75419 | 1257 ft | 154 kts | 270° |
| 2026-05-07 02:28 | -33.58204 | 150.74446 | 872 ft | 138 kts | 217° |
| 2026-05-07 02:29 | -33.59106 | 150.74690 | 743 ft | 159 kts | 131° |
| 2026-05-07 02:29 | -33.59921 | 150.76069 | 203 ft | 279 kts | 118° |
| 2026-05-07 02:29 | -33.60490 | 150.78547 | 215 ft | 344 kts | 106° |
| 2026-05-07 02:29 | -33.61269 | 150.81609 | 310 ft | 411 kts | 108° |
| 2026-05-07 02:30 | -33.61292 | 150.85106 | 1273 ft | 422 kts | 71° |
| 2026-05-07 02:30 | -33.59716 | 150.87595 | 5277 ft | 356 kts | 31° |
| 2026-05-07 02:30 | -33.57471 | 150.88572 | 8809 ft | 340 kts | 1° |
| 2026-05-07 02:30 | -33.55135 | 150.88387 | 10885 ft | 346 kts | 338° |
| 2026-05-07 02:31 | -33.52639 | 150.87612 | 11908 ft | 384 kts | 339° |
| 2026-05-07 02:31 | -33.49962 | 150.86849 | 12690 ft | 414 kts | 340° |
| 2026-05-07 02:31 | -33.46991 | 150.86129 | 12826 ft | 450 kts | 343° |
| 2026-05-07 02:31 | -33.43883 | 150.85514 | 14432 ft | 457 kts | 344° |
| 2026-05-07 02:32 | -33.40699 | 150.85020 | 16053 ft | 459 kts | 345° |
| 2026-05-07 02:32 | -33.37535 | 150.84712 | 17768 ft | 459 kts | 347° |
| 2026-05-07 02:32 | -33.34260 | 150.84427 | 18247 ft | 481 kts | 344° |
| 2026-05-07 02:32 | -33.30893 | 150.83821 | 18076 ft | 506 kts | 341° |
| 2026-05-07 02:33 | -33.27372 | 150.82908 | 17938 ft | 527 kts | 338° |
| 2026-05-07 02:33 | -33.23808 | 150.81705 | 17835 ft | 541 kts | 335° |
| 2026-05-07 02:33 | -33.20206 | 150.80214 | 17714 ft | 546 kts | 332° |
| 2026-05-07 02:33 | -33.16667 | 150.78474 | 17524 ft | 546 kts | 329° |
| 2026-05-07 02:34 | -33.13255 | 150.76521 | 17332 ft | 544 kts | 326° |
| 2026-05-07 02:34 | -33.09948 | 150.74350 | 17186 ft | 542 kts | 323° |
| 2026-05-07 02:34 | -33.06750 | 150.71969 | 17091 ft | 540 kts | 321° |
| 2026-05-07 02:34 | -33.03705 | 150.69414 | 17030 ft | 539 kts | 318° |
| 2026-05-07 02:35 | -33.00740 | 150.66628 | 16973 ft | 537 kts | 315° |
| 2026-05-07 02:35 | -32.97961 | 150.63717 | 16899 ft | 535 kts | 312° |
| 2026-05-07 02:35 | -32.95320 | 150.60647 | 16865 ft | 534 kts | 309° |
| 2026-05-07 02:35 | -32.92778 | 150.57373 | 16864 ft | 533 kts | 307° |
| 2026-05-07 02:36 | -32.90414 | 150.54000 | 16857 ft | 532 kts | 304° |
| 2026-05-07 02:36 | -32.88530 | 150.50495 | 16827 ft | 461 kts | 290° |
| 2026-05-07 02:36 | -32.87576 | 150.47216 | 16171 ft | 387 kts | 287° |
| 2026-05-07 02:36 | -32.86742 | 150.44271 | 13420 ft | 373 kts | 286° |
| 2026-05-07 02:37 | -32.85924 | 150.41364 | 10698 ft | 366 kts | 286° |
| 2026-05-07 02:37 | -32.85115 | 150.38503 | 8183 ft | 361 kts | 286° |
| 2026-05-07 02:37 | -32.84292 | 150.35798 | 6852 ft | 336 kts | 286° |
| 2026-05-07 02:37 | -32.83544 | 150.33252 | 5828 ft | 318 kts | 284° |
| 2026-05-07 02:38 | -32.82866 | 150.30850 | 5256 ft | 300 kts | 283° |
| 2026-05-07 02:38 | -32.82273 | 150.28485 | 5021 ft | 289 kts | 276° |
| 2026-05-07 02:38 | -32.81753 | 150.26282 | 5124 ft | 273 kts | 284° |
| 2026-05-07 02:38 | -32.81236 | 150.24108 | 4902 ft | 279 kts | 278° |
| 2026-05-07 02:39 | -32.80841 | 150.21840 | 4832 ft | 277 kts | 281° |
| 2026-05-07 02:39 | -32.80343 | 150.19593 | 4574 ft | 286 kts | 281° |
| 2026-05-07 02:39 | -32.79818 | 150.17284 | 4460 ft | 279 kts | 280° |
| 2026-05-07 02:39 | -32.79350 | 150.15095 | 4742 ft | 274 kts | 280° |
| 2026-05-07 02:40 | -32.78878 | 150.12878 | 4754 ft | 275 kts | 280° |
| 2026-05-07 02:40 | -32.78409 | 150.10688 | 4763 ft | 275 kts | 280° |
| 2026-05-07 02:40 | -32.77938 | 150.08480 | 4788 ft | 274 kts | 279° |
| 2026-05-07 02:40 | -32.77475 | 150.06282 | 4800 ft | 273 kts | 280° |
| 2026-05-07 02:41 | -32.77015 | 150.04104 | 4840 ft | 273 kts | 280° |
| 2026-05-07 02:41 | -32.76719 | 150.01886 | 4426 ft | 280 kts | 270° |
| 2026-05-07 02:41 | -32.76833 | 149.99369 | 2571 ft | 313 kts | 269° |
| 2026-05-07 02:41 | -32.76363 | 149.96855 | 2526 ft | 323 kts | 291° |
| 2026-05-07 02:42 | -32.76016 | 149.94490 | 3659 ft | 262 kts | 232° |
| 2026-05-07 02:42 | -32.76971 | 149.95007 | 4924 ft | 209 kts | 68° |
| 2026-05-07 02:42 | -32.76388 | 149.96855 | 4044 ft | 280 kts | 89° |
| 2026-05-07 02:42 | -32.76990 | 149.99132 | 2257 ft | 307 kts | 110° |
| 2026-05-07 02:43 | -32.77269 | 150.01462 | 2368 ft | 286 kts | 100° |
| 2026-05-07 02:43 | -32.77744 | 150.04132 | 2601 ft | 377 kts | 98° |
| 2026-05-07 02:43 | -32.78055 | 150.07469 | 3058 ft | 446 kts | 99° |
| 2026-05-07 02:43 | -32.78985 | 150.11256 | 3665 ft | 498 kts | 118° |
| 2026-05-07 02:44 | -32.80627 | 150.15080 | 4322 ft | 545 kts | 120° |
| 2026-05-07 02:44 | -32.82448 | 150.19205 | 5056 ft | 579 kts | 120° |
| 2026-05-07 02:44 | -32.84409 | 150.23527 | 5804 ft | 600 kts | 124° |
| 2026-05-07 02:44 | -32.86662 | 150.27787 | 5777 ft | 624 kts | 125° |
| 2026-05-07 02:45 | -32.89021 | 150.32195 | 5298 ft | 638 kts | 125° |
| 2026-05-07 02:45 | -32.91422 | 150.36669 | 4659 ft | 641 kts | 124° |
| 2026-05-07 02:45 | -32.93927 | 150.40978 | 4753 ft | 634 kts | 129° |
| 2026-05-07 02:45 | -32.96563 | 150.45195 | 5123 ft | 631 kts | 129° |
| 2026-05-07 02:46 | -32.99175 | 150.49379 | 5507 ft | 630 kts | 129° |
| 2026-05-07 02:46 | -33.01771 | 150.53539 | 5868 ft | 630 kts | 129° |
| 2026-05-07 02:46 | -33.04392 | 150.57736 | 6202 ft | 630 kts | 129° |
| 2026-05-07 02:46 | -33.07033 | 150.61964 | 6505 ft | 630 kts | 129° |
| 2026-05-07 02:47 | -33.09663 | 150.66171 | 6776 ft | 631 kts | 129° |
| 2026-05-07 02:47 | -33.12265 | 150.70337 | 7052 ft | 632 kts | 129° |
| 2026-05-07 02:47 | -33.14908 | 150.74567 | 7340 ft | 634 kts | 129° |
| 2026-05-07 02:47 | -33.17489 | 150.78702 | 7623 ft | 635 kts | 129° |
| 2026-05-07 02:48 | -33.20155 | 150.82964 | 7885 ft | 637 kts | 129° |
| 2026-05-07 02:48 | -33.22796 | 150.87178 | 8126 ft | 638 kts | 129° |
| 2026-05-07 02:48 | -33.25461 | 150.91429 | 8391 ft | 639 kts | 129° |
| 2026-05-07 02:48 | -33.28127 | 150.95685 | 8673 ft | 639 kts | 129° |
| 2026-05-07 02:49 | -33.30724 | 150.99951 | 8554 ft | 607 kts | 125° |
| 2026-05-07 02:49 | -33.32758 | 151.03863 | 5050 ft | 519 kts | 114° |
| 2026-05-07 02:49 | -33.32866 | 151.07995 | 3409 ft | 459 kts | 85° |
| 2026-05-07 02:49 | -33.32270 | 151.11434 | 3365 ft | 415 kts | 77° |
| 2026-05-07 02:50 | -33.31557 | 151.15090 | 2847 ft | 489 kts | 76° |
| 2026-05-07 02:50 | -33.30484 | 151.19160 | 2773 ft | 534 kts | 69° |
| 2026-05-07 02:50 | -33.28963 | 151.23407 | 2963 ft | 563 kts | 64° |
| 2026-05-07 02:50 | -33.27247 | 151.27663 | 3289 ft | 579 kts | 63° |
| 2026-05-07 02:51 | -33.25417 | 151.32007 | 2952 ft | 594 kts | 64° |
| 2026-05-07 02:51 | -33.23897 | 151.36121 | 2181 ft | 484 kts | 61° |
| 2026-05-07 02:51 | -33.22280 | 151.39280 | 1829 ft | 417 kts | 56° |
| 2026-05-07 02:51 | -33.20748 | 151.41947 | 1731 ft | 359 kts | 51° |
| 2026-05-07 02:52 | -33.20268 | 151.44373 | 2109 ft | 277 kts | 129° |
| 2026-05-07 02:52 | -33.21788 | 151.44872 | 1568 ft | 225 kts | 210° |
| 2026-05-07 02:52 | -33.23058 | 151.43835 | 1048 ft | 220 kts | 220° |
| 2026-05-07 02:52 | -33.24298 | 151.42722 | 742 ft | 234 kts | 214° |
| 2026-05-07 02:53 | -33.25844 | 151.42935 | 1415 ft | 257 kts | 131° |
| 2026-05-07 02:53 | -33.26010 | 151.45056 | 1865 ft | 279 kts | 75° |
| 2026-05-07 02:53 | -33.25187 | 151.47217 | 2403 ft | 293 kts | 57° |
| 2026-05-07 02:53 | -33.24082 | 151.49419 | 2246 ft | 323 kts | 53° |
| 2026-05-07 02:54 | -33.22553 | 151.51200 | 2325 ft | 269 kts | 19° |
| 2026-05-07 02:54 | -33.20868 | 151.51353 | 2334 ft | 238 kts | 332° |
| 2026-05-07 02:54 | -33.19695 | 151.50058 | 2310 ft | 231 kts | 301° |
| 2026-05-07 02:54 | -33.18989 | 151.48462 | 2161 ft | 201 kts | 269° |
| 2026-05-07 02:55 | -33.19533 | 151.47188 | 1810 ft | 170 kts | 224° |
| 2026-05-07 02:55 | -33.20423 | 151.46279 | 949 ft | 171 kts | 225° |
| 2026-05-07 02:55 | -33.21347 | 151.45397 | 683 ft | 161 kts | 220° |
| 2026-05-07 02:55 | -33.22120 | 151.44688 | 489 ft | 130 kts | 222° |
| 2026-05-07 02:56 | -33.22958 | 151.43924 | 258 ft | 167 kts | 220° |
| 2026-05-07 02:56 | -33.23954 | 151.43056 | 41 ft | 170 kts | 219° |
| 2026-05-07 02:56 | -33.24813 | 151.42286 | 254 ft | 171 kts | 218° |
| 2026-05-07 02:56 | -33.25939 | 151.41334 | 1174 ft | 195 kts | 218° |
| 2026-05-07 02:57 | -33.26969 | 151.40551 | 2047 ft | 157 kts | 212° |
| 2026-05-07 02:57 | -33.27876 | 151.40125 | 2771 ft | 121 kts | 202° |
| 2026-05-07 02:57 | -33.28584 | 151.40214 | 2670 ft | 99 kts | 144° |
| 2026-05-07 02:57 | -33.29369 | 151.41398 | 1172 ft | 275 kts | 110° |
| 2026-05-07 02:58 | -33.29082 | 151.43930 | 1910 ft | 355 kts | 67° |
| 2026-05-07 02:58 | -33.27977 | 151.46655 | 2896 ft | 365 kts | 58° |
| 2026-05-07 02:58 | -33.26156 | 151.48832 | 3590 ft | 378 kts | 27° |
| 2026-05-07 02:58 | -33.23787 | 151.50083 | 3942 ft | 352 kts | 13° |
| 2026-05-07 02:59 | -33.21569 | 151.50691 | 3962 ft | 303 kts | 359° |
| 2026-05-07 02:59 | -33.20237 | 151.50684 | 3938 ft | 276 kts | 349° |
| 2026-05-07 02:59 | -33.18292 | 151.49406 | 3401 ft | 231 kts | 295° |
| 2026-05-07 02:59 | -33.18262 | 151.47622 | 2550 ft | 224 kts | 233° |
| 2026-05-07 03:00 | -33.19125 | 151.46935 | 2120 ft | 226 kts | 211° |
| 2026-05-07 03:00 | -33.20486 | 151.46017 | 1044 ft | 219 kts | 217° |
| 2026-05-07 03:00 | -33.21743 | 151.44989 | 619 ft | 216 kts | 218° |
| 2026-05-07 03:00 | -33.22911 | 151.43970 | 218 ft | 198 kts | 221° |
| 2026-05-07 03:01 | -33.23888 | 151.43109 | 39 ft | 149 kts | 220° |
| 2026-05-07 03:01 | -33.24139 | 151.42893 | 32 ft | 0 kts | 218° |